Desk Aeronautico è consultabile gratuitamente, la pubblicità è l'unico modo per mantenere il sito online. Cercheremo di renderla il meno invasiva possibile, disattiva AdBlock!

Ultimi METAR emessi

Il METAR (Aerodrome routine meteorological report) è un messaggio codificato che descrive le condizioni meteorologiche osservate da una stazione meteo. I METAR sono reperibili presso gli ARO competenti. Scopri come leggere i METAR dalla nostra guida.

La lista degli ultimi METAR emessi da stazioni meteorologiche italiane sono elencati a seguire a puro scopo informativo. L’elenco degli indicatori di località ICAO è disponibile qui.


METAR LIBA 072155Z 28006KT CAVOK 10/09 Q1027 RMK SKC VIS MIN 9999 WIND THR11 28007KT WIND THR29 /////KT BLU=
METAR LIBC 071750Z 01007KT CAVOK 14/00 Q1025=
METAR LIBD 072150Z AUTO 25005KT 7000 NCD 07/06 Q1027=
METAR LIBE 072155Z 31004KT CAVOK 10/M11 Q1025 RMK SKC MON LIB VAL NIL VIS MIN 9999=
METAR LIBF 071550Z 34010KT CAVOK 18/02 Q1025=
METAR LIBG 071750Z 35004KT CAVOK 15/06 Q1025=
METAR LIBH 072155Z 30008KT CAVOK 10/04 Q1025 RMK SKC QUK / QUL / VIS MAR 10 KM VIS MIN 9999=
METAR LIBN 072155Z 35005KT CAVOK 11/10 Q1024 RMK SKC VIS MIN 9999 WIND THR14 35007KT WIND THR32 35008KT BLU=
METAR LIBP 072150Z AUTO 21006KT 9999 NCD 07/05 Q1028=
METAR LIBQ 072155Z 08012KT CAVOK 01/M08 Q1023 RMK SKC MON LIB VAL NIL VIS MIN 9999=
METAR LIBR 072150Z 32011KT CAVOK 13/12 Q1025=
METAR LIBS 071755Z 04006KT CAVOK 12/01 Q1028 RMK SKC MON LIB VIS MIN 9999=
METAR LIBT 071755Z 29010KT 6000 NSC 14/12 Q1026 RMK SKC QUK 1 QUL 1 NW VIS MAR 6 KM VIS MIN 6000=
METAR LIBU 071755Z 04011KT CAVOK 10/M04 Q1025 RMK SKC MON LIB VAL NIL VIS MIN 9999=
METAR LIBV 072155Z 30006KT CAVOK 06/03 Q1025 RMK SKC VIS MIN 9999 WIND THR32 33004KT WIND THR14 30005KT BLU=
METAR LIBW 071755Z 15010KT CAVOK 13/M00 Q1024 RMK SKC QUK 1 QUL 0 VIS MAR 20 KM MON LIB VAL NIL VIS MIN 9999=
METAR LIBY 071755Z 30006KT CAVOK 14/M01 Q1023 RMK SKC QUK / QUL / VIS MAR 15 KM VIS MIN 9999=
METAR LICA 072150Z 07005KT CAVOK 08/08 Q1026=
METAR LICB 072150Z AUTO 05004KT 9999 OVC083/// 10/07 Q1025=
METAR LICC 072150Z 33002KT 9999 SCT090 09/05 Q1026=
METAR LICD 072150Z AUTO 14003KT 9999 NCD 15/10 Q1025=
METAR LICE 071755Z 25006KT 9999 -RA FEW004 SCT008 07/06 Q1023 RMK OVC BKN060 MON GEN INC NC VAL NIL NC VIS MIN 9999=
METAR LICF 072155Z 00000KT CAVOK 12/09 Q1025 RMK SKC QUK / QUL / VIS MAR 16 KM MON INVIS NC VIS MIN 9999=
METAR LICG 071650Z 36008KT CAVOK 14/10 Q1024=
METAR LICJ 071650Z 05011KT 9999 FEW025 16/12 Q1024=
METAR LICL 071755Z 11005KT 040V160 9999 -RA FEW020 SCT021 14/12 Q//// RMK OVC BKN080 QUK 1 QUL 0 VIS MAR 12 KM VIS MIN 9999=
METAR LICO 071755Z 06003KT 9999 FEW015 SCT018 15/12 Q1023 RMK OVC BKN070 QUK / QUL / VIS MAR 15 KM VIS MIN 9999=
METAR LICR 072150Z 06005KT CAVOK 10/06 Q1026=
METAR LICT 072155Z 13004KT 090V180 CAVOK 11/10 Q1025 RMK SKC VIS MIN 9999 WIND THR13 09005KT BLU=
METAR LICU 071455Z /////KT 9999 FEW020 17/13 Q1026 RMK FEW QUK 1 QUL 0 VIS MAR 18 KM VIS MIN 9999=
METAR LICX 071355Z 02007KT 9999 SCT018 BKN022 10/05 Q1024 RMK BKN MON LIB NC VAL NIL NC VIS MIN 9999=
METAR LICZ 072155Z 29003KT 9999 SCT080 11/11 Q1026 RMK SCT VIS MIN 9999 WIND THR28 25004KT WIND THR10 27004KT A3031 BLU=
METAR LIEA 072150Z VRB01KT CAVOK 10/06 Q1026=
METAR LIEB 072155Z 31007KT CAVOK 13/07 Q1025 RMK SKC QUK / QUL / VIS MAR 30 KM MON INVIS VIS MIN 9999=
METAR LIEC 072055Z 06006KT CAVOK 15/06 Q1026 RMK QUK / QUL / VIS MAR 16 KM VIS MIN 9999=
METAR LIED 072155Z 02002KT CAVOK 10/09 Q1025 RMK SKC VIS MIN 9999 WIND THR35 02002KT WIND THR17 /////KT BLU=
METAR LIEE 072150Z 33004KT CAVOK 11/08 Q1026=
METAR LIEF 071755Z 27004KT 9999 FEW040 16/14 Q1026 RMK BKN BKN060 QUK 2 QUL 9 VIS MAR 20 KM VIS MIN 9999=
METAR LIEH 072155Z 03005KT CAVOK 14/05 Q1026 RMK QUK / QUL / VIS MAR 20 KM VIS MIN 9999=
METAR LIEL 071355Z 00000KT CAVOK 19/14 Q1026 RMK SKC VIS MAR 18 KM MON LIB VIS MIN 9999=
METAR LIEO 072050Z 23003KT CAVOK 10/09 Q1027=
METAR LIMC 072150Z 06004KT CAVOK 09/02 Q1029 NOSIG=
METAR LIME 072150Z 36005KT CAVOK 11/04 Q1029 NOSIG=
METAR LIMF 072150Z AUTO 31006KT 9999 NCD 13/M01 Q1029=
METAR LIMG 071750Z 28003KT 240V340 CAVOK 17/02 Q1026=
METAR LIMJ 072050Z 34003KT 280V060 CAVOK 17/04 Q1026=
METAR LIMK 072155Z 00000KT CAVOK 12/M05 Q1028 RMK SKC VAL NIL VIS MIN 9999=
METAR LIML 072150Z AUTO 06005KT 9999 NCD 14/M00 Q1029=
METAR LIMN 071755Z 10004KT CAVOK 20/03 Q1026 RMK SKC VIS MIN 9999 BLU=
METAR LIMP 071750Z 09003KT 360V100 CAVOK 19/09 Q1027=
METAR LIMS 071755Z 12004KT CAVOK 16/02 Q1026 RMK SKC VIS MIN 9999 WIND THR30 11004KT BLU=
METAR LIMU 072155Z 02004KT CAVOK 18/01 Q1027 RMK SKC QUK / QUL / VIS MAR 35 KM VIS MIN 9999=
METAR LIMV 071755Z /////KT CAVOK 17/M04 Q1026 RMK SKC MON LIB VAL NIL VIS MIN 9999=
METAR LIMY 071755Z /////KT CAVOK 16/01 Q1027 RMK SKC VAL FOSCHIA SKC SUP VIS MIN 9999=
METAR LIMZ 071850Z VRB01KT CAVOK 14/04 Q1027=
METAR LIPA 071755Z 20004KT CAVOK 18/09 Q1027 RMK SKC VIS MIN 9999 WIND THR05 /////KT WIND THR23 /////KT A3034 BLU=
METAR LIPB 072050Z 15005KT 100V210 CAVOK 17/M02 Q1028 RMK MON LIB=
METAR LIPC 072155Z 23007KT CAVOK 08/05 Q1028 RMK SKC VIS MIN 9999 WIND THR11 23005KT WIND THR29 25005KT BLU=
METAR LIPE 072050Z 20004KT CAVOK 11/M01 Q1028=
METAR LIPF 071755Z ///02KT CAVOK 17/01 Q1027 RMK SKC VIS MIN 9999=
METAR LIPH 052050Z 03005KT CAVOK 15/M00 Q1025=
METAR LIPI 071355Z 07006KT CAVOK 24/M04 Q1027 RMK SKC VIS MIN 9999 WIND THR06 15005KT WIND THR24 07004KT BLU=
METAR LIPL 072155Z 06005KT CAVOK 10/02 Q1028 RMK SKC VIS MIN 9999 WIND THR31 05004KT WIND THR13 06005KT BLU=
METAR LIPO 072150Z 04005KT CAVOK 14/M04 Q1029=
METAR LIPQ 060350Z AUTO 35003KT 9999 NCD 09/01 Q1025=
METAR LIPR 072150Z AUTO 18003KT 9999 NCD 06/02 Q1028=
METAR LIPS 072155Z /////KT CAVOK 10/04 Q1028 RMK SKC VIS MIN 9999 WIND THR26 01005KT WIND THR08 02005KT BLU=
METAR LIPU 071350Z 14005KT 090V180 CAVOK 20/M08 Q1027=
METAR LIPX 072150Z AUTO 34004KT 9999 NCD 10/M02 Q1029=
METAR LIPY 072150Z 18003KT CAVOK 07/06 Q1028=
METAR LIPZ 072150Z 05002KT CAVOK 11/03 Q1029 NOSIG=
METAR LIQB 071755Z 03005KT CAVOK 16/M03 Q1025 RMK SKC VIS MIN 9999=
METAR LIQC 071755Z 01001KT CAVOK 14/09 Q1025 RMK SKC QUK 1 QUL 1 W VIS MAR 35 KM VIS MIN 9999=
METAR LIQJ 072155Z AUTO 10005KT //// 14/07 Q1026=
METAR LIQK 071755Z 00000KT CAVOK 16/12 Q1025 RMK SKC QUK 1 QUL 0 VIS MAR 20 KM VIS MIN 9999=
METAR LIQN 071750Z VRB03KT CAVOK 17/05 Q1024=
METAR LIQO 071755Z 30008KT CAVOK 14/M06 Q1025 RMK SKC VAL NIL NC VIS MIN 9999=
METAR LIQW 071155Z 06009KT CAVOK 18/09 Q1026 RMK SKC VIS MIN 9999 WIND THR18 13008KT BLU=
METAR LIQZ 072155Z 01005KT CAVOK 12/11 Q1026 RMK SKC QUK / QUL / VIS MAR 10 KM VIS MIN 9999=
METAR LIRA 072050Z 15004KT 9999 FEW070 14/07 Q1026=
METAR LIRB 072155Z AUTO VRB02KT //// 11/03 Q1026=
METAR LIRE 072155Z 05003KT CAVOK 08/07 Q1026 RMK FEW FEW090 VIS MIN 9999 WIND THR13 03002KT WIND THR31 02002KT BLU=
METAR LIRF 072150Z VRB01KT CAVOK 10/08 Q1026 NOSIG=
METAR LIRG 071755Z 21005KT 9999 FEW040 17/08 Q1026 RMK FEW MON NE LIB NC VIS MIN 9999 BLU=
METAR LIRH 071355Z 16010KT 9999 SCT040 22/08 Q1024 RMK SCT MON LIB NC VIS MIN 9999 WIND THR16 /////KT BLU=
METAR LIRK 072155Z AUTO 12008KT //// 03/M02 Q1029=
METAR LIRL 071755Z 26004KT CAVOK 16/06 Q1025 RMK SKC MON LIB NC VIS MIN 9999 WIND THR12 27003KT WIND THR30 /////KT BLU=
METAR LIRM 072155Z 36002KT CAVOK 08/08 Q1025 RMK SKC VIS MIN 9999 WIND THR06 34002KT BLU=
METAR LIRN 072150Z AUTO 11005KT 070V140 9999 NCD 14/01 Q1026=
METAR LIRP 072145Z 10003KT 050V120 CAVOK 09/05 Q1026 NOSIG RMK SKC VIS MIN 9999 WIND THR04 12004KT WIND THR22 10003KT BLU=
METAR LIRQ 072150Z 20008KT 160V230 CAVOK 13/M03 Q1027=
METAR LIRS 072155Z 04002KT CAVOK 15/11 Q1025 RMK SKC VIS MIN 9999 WIND THR03 04003KT WIND THR21 09002KT BLU=
METAR LIRT 071755Z 01009KT CAVOK 10/M02 Q1026 RMK SKC MON INVIS VAL INVIS VIS MIN 9999=
METAR LIRU 071750Z 23005KT CAVOK 16/05 Q1025=
METAR LIRV 071955Z 08002KT CAVOK 11/05 Q1025 RMK SKC MON E SE LIB NC VIS MIN 9999 WIND THR04 ///// KT BLU=
METAR LIRX 071755Z 35008KT CAVOK 15/04 Q1024 RMK SKC VIS MIN 9999 VIS MAR 20 KM=
METAR LIRZ 072150Z AUTO 35010KT 9999 NCD 10/02 Q1027=
METAR LIVC 072055Z AUTO VRB08KT //// 00/M19 Q1029=
METAR LIVD 071755Z ///04KT CAVOK 11/M07 Q1030 RMK SKC VIS MIN 9999=
METAR LIVE 072055Z 03003KT CAVOK 04/M02 Q1029 RMK SKC VIS MIN 9999=
METAR LIVF 072155Z 20006KT CAVOK 09/M01 Q1026 RMK SKC MON LIB VAL NIL VIS MIN 9999=
METAR LIVM 072155Z AUTO 24002KT //// 10/04 Q1028=
METAR LIVO 071755Z 35001KT CAVOK 11/M01 Q1029 RMK SKC VIS MIN 9999=
METAR LIVP 072155Z 19012KT CAVOK 02/M07 Q1030 RMK SKC MON LIB VAL NIL VIS MIN 9999=
METAR LIVR 072055Z 12007KT CAVOK 02/M03 Q1027 RMK SKC MON LIB VIS MIN 9999=
METAR LIVT 072155Z /////KT CAVOK 17/M04 Q1028 RMK SKC QUK / QUL / VIS MAR 20 KM VIS MIN 9999=

Informazioni elaborate dal Servizio Meteorologico dell’Aeronautica Militare e pubblicate sul sito www.meteoam.it